Matlacha, Florida
Current Conditions -  °F | °C
As of 3:53 PM on Monday 24 Nov 2014 (Local Time) from KFMY Reporting Station
Clear Clear  
Wind Chill: 83°   Ceiling: Unl
Heat Index: 88°   Visibility: 10mi
Dew Point: 71°   Wind: 9mph
Humidity: 67%   Direction: 210°SSW
Pressure: 29.95"   Gusts: NA
Location:  26.6904°N, 82.0304°W
Report Text: KFMY 242053Z 21008KT 10SM CLR 28/22 A2995 RMK AO2 SLP143 T02830217 53001
Loading
Personal Weather Stations






























Interactive Weather Map New forecast layout! Learn more

10-Day Weather Forecast

Advertisements
Track Severe Weather on mobile